Time;durP1;ratioP1;P1;durP2;ratioP2;P2;SDS_P1;SDS_P2;PMS_P1;PMS_P2;Temp;Humidity;BMP_temperature;BMP_pressure;BME280_temperature;BME280_humidity;BME280_pressure;Samples;Min_cycle;Max_cycle;Signal;HPM_P1;HPM_P2
2021/03/14 00:01:05;;;;;;;11.23;4.68;;;;;;;9.75;61.29;98849.91;4438405;32;35305;-72
2021/03/14 00:03:34;;;;;;;7.65;3.12;;;;;;;9.80;61.19;98850.22;4436546;32;34225;-72
2021/03/14 00:06:02;;;;;;;3.30;2.87;;;;;;;9.93;60.82;98840.00;4434153;32;33609;-72
2021/03/14 00:08:30;;;;;;;4.93;2.33;;;;;;;9.97;60.56;98842.16;4439373;32;33494;-72
2021/03/14 00:11:00;;;;;;;4.82;3.80;;;;;;;9.85;60.99;98859.41;4422060;32;34185;-72
2021/03/14 00:13:29;;;;;;;6.15;3.97;;;;;;;10.20;59.84;98850.37;4419682;32;34143;-72
2021/03/14 00:15:57;;;;;;;6.80;3.75;;;;;;;10.04;60.38;98851.19;4437993;32;34152;-72
2021/03/14 00:18:36;;;;;;;4.22;3.25;;;;;;;10.14;60.00;98845.69;4420180;32;34051;-72
2021/03/14 00:21:04;;;;;;;5.60;3.97;;;;;;;10.03;60.44;98848.69;4420886;32;36042;-72
2021/03/14 00:23:32;;;;;;;6.15;3.70;;;;;;;10.01;60.54;98842.66;4437720;32;34043;-72
2021/03/14 00:25:59;;;;;;;3.57;3.27;;;;;;;9.85;60.99;98840.81;4424480;32;34937;-72
2021/03/14 00:28:26;;;;;;;3.92;2.35;;;;;;;9.77;61.11;98842.59;4421411;32;33629;-72
2021/03/14 00:30:54;;;;;;;8.48;4.75;;;;;;;9.80;61.01;98831.62;4435712;32;34572;-73
2021/03/14 00:33:21;;;;;;;5.80;3.72;;;;;;;9.74;61.34;98827.81;4431429;32;35685;-72
2021/03/14 00:35:49;;;;;;;4.22;3.83;;;;;;;9.67;61.67;98829.47;4437536;32;32360;-73
2021/03/14 00:38:16;;;;;;;7.50;3.67;;;;;;;10.21;59.93;98826.25;4422058;32;34006;-72
2021/03/14 00:40:44;;;;;;;2.20;1.27;;;;;;;9.76;60.90;98819.69;4432931;32;34483;-72
2021/03/14 00:43:14;;;;;;;4.62;4.22;;;;;;;9.76;61.41;98828.50;4406397;32;34714;-72
2021/03/14 00:45:41;;;;;;;11.73;3.50;;;;;;;9.84;61.04;98825.84;4440385;32;32818;-73
2021/03/14 00:48:29;;;;;;;4.25;3.40;;;;;;;10.02;60.26;98829.22;4422622;32;33426;-72
2021/03/14 00:50:57;;;;;;;4.22;3.05;;;;;;;9.74;61.37;98824.34;4420560;32;34682;-72
2021/03/14 00:53:24;;;;;;;;;;;;;;;10.17;59.82;98821.44;4429541;32;33724;-72
2021/03/14 00:55:57;;;;;;;6.30;3.50;;;;;;;10.30;59.24;98816.47;4419567;32;32212;-72
2021/03/14 00:58:25;;;;;;;3.15;2.72;;;;;;;10.29;59.30;98817.47;4435001;32;32958;-72
2021/03/14 01:00:53;;;;;;;4.00;3.33;;;;;;;9.94;60.61;98817.75;4434125;32;34812;-72
2021/03/14 01:03:20;;;;;;;8.40;5.40;;;;;;;10.02;60.14;98817.75;4424768;32;34580;-72
2021/03/14 01:05:49;;;;;;;13.80;5.28;;;;;;;9.66;61.02;98819.00;4422384;32;34052;-72
2021/03/14 01:08:19;;;;;;;4.55;4.15;;;;;;;9.57;61.24;98807.56;4426672;32;33648;-72
2021/03/14 01:10:46;;;;;;;3.10;2.17;;;;;;;9.77;60.96;98813.38;4426868;32;35438;-72
2021/03/14 01:13:14;;;;;;;5.85;4.12;;;;;;;9.87;60.19;98809.59;4421307;32;34366;-72
2021/03/14 01:15:42;;;;;;;3.80;2.80;;;;;;;9.87;60.40;98809.59;4424905;32;33275;-72
2021/03/14 01:18:11;;;;;;;5.00;3.50;;;;;;;10.08;59.38;98815.28;4411323;32;34323;-72
2021/03/14 01:20:39;;;;;;;11.10;5.90;;;;;;;10.11;59.39;98806.97;4435731;32;36919;-72
2021/03/14 01:23:06;;;;;;;6.07;4.37;;;;;;;10.21;59.19;98804.19;4435564;32;34275;-72
2021/03/14 01:25:33;;;;;;;3.12;2.87;;;;;;;10.37;58.55;98805.00;4421391;32;33151;-72
2021/03/14 01:28:01;;;;;;;4.47;3.50;;;;;;;10.22;58.89;98801.38;4424893;32;34761;-72
2021/03/14 01:30:29;;;;;;;7.18;3.70;;;;;;;10.37;58.43;98810.31;4417195;32;34582;-72
2021/03/14 01:32:56;;;;;;;8.97;5.47;;;;;;;10.08;59.25;98809.97;4420172;32;34175;-72
2021/03/14 01:35:24;;;;;;;16.27;8.40;;;;;;;10.13;59.08;98812.16;4435960;32;34274;-72
2021/03/14 01:37:51;;;;;;;18.10;9.23;;;;;;;10.30;58.41;98822.59;4435483;32;33734;-72
2021/03/14 01:40:18;;;;;;;10.37;7.03;;;;;;;10.22;58.69;98821.78;4433723;32;36735;-73
2021/03/14 01:42:46;;;;;;;6.87;5.15;;;;;;;10.35;58.36;98828.28;4418168;32;33776;-72
2021/03/14 01:45:14;;;;;;;7.15;5.35;;;;;;;10.16;58.72;98827.75;4426500;32;33245;-72
2021/03/14 01:47:44;;;;;;;28.17;11.40;;;;;;;10.18;58.73;98826.59;4423999;32;34456;-72
2021/03/14 01:50:21;;;;;;;9.13;4.57;;;;;;;10.23;58.50;98818.97;4408103;32;33930;-72
2021/03/14 01:52:49;;;;;;;11.30;6.07;;;;;;;10.45;57.72;98820.13;4438820;32;33960;-72
2021/03/14 01:55:19;;;;;;;11.73;4.55;;;;;;;10.40;57.47;98822.47;4434764;32;33987;-72
2021/03/14 01:57:47;;;;;;;3.28;2.50;;;;;;;10.56;56.92;98817.13;4429959;32;34688;-72
2021/03/14 02:00:18;;;;;;;6.80;2.50;;;;;;;10.39;57.33;98815.47;4424386;32;35473;-72
2021/03/14 02:02:46;;;;;;;3.33;2.35;;;;;;;10.29;57.38;98815.62;4437271;32;34295;-72
2021/03/14 02:05:15;;;;;;;2.47;2.28;;;;;;;10.37;56.66;98820.16;4436508;32;32827;-72
2021/03/14 02:07:44;;;;;;;3.85;3.50;;;;;;;10.11;57.34;98817.63;4437844;32;34309;-72
2021/03/14 02:10:13;;;;;;;3.08;2.87;;;;;;;9.87;58.21;98819.37;4424478;32;34879;-72
2021/03/14 02:12:49;;;;;;;3.47;2.45;;;;;;;10.11;57.70;98806.97;4435915;32;34291;-72
2021/03/14 02:15:17;;;;;;;4.03;2.03;;;;;;;10.34;56.91;98808.00;4434756;32;34253;-72
2021/03/14 02:17:46;;;;;;;4.93;2.40;;;;;;;10.21;57.11;98810.31;4423579;32;33761;-72
2021/03/14 02:20:17;;;;;;;9.50;2.33;;;;;;;10.34;56.75;98805.34;4434315;32;35956;-72
2021/03/14 02:22:47;;;;;;;3.00;1.83;;;;;;;10.37;56.56;98801.53;4436962;32;34084;-72
2021/03/14 02:25:32;;;;;;;2.08;1.85;;;;;;;10.43;56.25;98800.84;4435764;32;33052;-73
2021/03/14 02:27:59;;;;;;;2.08;1.87;;;;;;;10.55;55.81;98789.69;4425228;32;35641;-72
2021/03/14 02:30:26;;;;;;;3.87;3.22;;;;;;;10.43;56.24;98793.72;4397643;32;37037;-72
2021/03/14 02:32:54;;;;;;;4.45;2.70;;;;;;;10.28;56.93;98799.88;4408064;32;35308;-72
2021/03/14 02:35:21;;;;;;;1.40;1.25;;;;;;;10.37;56.77;98793.56;4408253;32;33887;-72
2021/03/14 02:37:49;;;;;;;;;;;;;;;10.49;56.50;98800.19;4435934;32;34825;-72
2021/03/14 02:40:17;;;;;;;2.30;1.80;;;;;;;10.39;56.79;98797.69;4434139;32;34560;-72
2021/03/14 02:42:45;;;;;;;2.53;2.33;;;;;;;10.43;56.60;98806.16;4433343;32;33657;-72
2021/03/14 02:45:13;;;;;;;3.42;2.12;;;;;;;10.53;56.26;98801.50;4434057;32;34546;-72
2021/03/14 02:47:41;;;;;;;2.65;2.00;;;;;;;10.51;56.25;98812.31;4425855;32;34323;-72
2021/03/14 02:50:18;;;;;;;2.65;2.25;;;;;;;10.58;56.05;98809.81;4436487;32;34433;-72
2021/03/14 02:52:46;;;;;;;3.45;2.47;;;;;;;10.81;55.45;98813.41;4425281;32;33287;-72
2021/03/14 02:55:18;;;;;;;4.85;3.47;;;;;;;10.73;55.40;98810.78;4420943;32;33949;-72
2021/03/14 02:57:46;;;;;;;3.75;2.42;;;;;;;10.80;55.16;98819.75;4411239;32;35175;-72
2021/03/14 03:00:16;;;;;;;4.30;2.62;;;;;;;10.88;54.86;98822.41;4435492;32;34873;-73
2021/03/14 03:02:46;;;;;;;5.28;3.17;;;;;;;10.83;54.87;98808.75;4413360;32;34372;-72
2021/03/14 03:05:15;;;;;;;4.78;3.28;;;;;;;10.69;55.30;98814.78;4420990;32;33291;-72
2021/03/14 03:07:48;;;;;;;2.10;1.95;;;;;;;10.79;55.05;98802.97;4422924;32;33186;-72
2021/03/14 03:10:17;;;;;;;2.47;2.28;;;;;;;10.60;55.73;98805.16;4422771;32;34403;-72
2021/03/14 03:12:46;;;;;;;3.20;2.90;;;;;;;10.78;55.20;98803.13;4429078;32;34888;-72
2021/03/14 03:15:15;;;;;;;3.33;2.17;;;;;;;10.76;55.22;98807.81;4433770;32;34928;-72
2021/03/14 03:17:43;;;;;;;3.22;1.40;;;;;;;10.81;55.03;98811.59;4435532;32;33560;-72
2021/03/14 03:20:23;;;;;;;2.25;2.05;;;;;;;10.87;54.74;98808.25;4427094;32;35709;-73
2021/03/14 03:22:51;;;;;;;3.97;2.20;;;;;;;10.90;54.59;98815.06;4438031;32;34245;-72
2021/03/14 03:25:18;;;;;;;3.17;2.40;;;;;;;10.87;54.59;98820.75;4435429;32;33274;-72
2021/03/14 03:27:46;;;;;;;3.12;2.45;;;;;;;10.86;54.54;98819.09;4421157;32;33821;-72
2021/03/14 03:30:16;;;;;;;2.08;1.98;;;;;;;10.81;54.61;98819.59;4418666;32;34456;-72
2021/03/14 03:32:46;;;;;;;4.20;3.10;;;;;;;10.60;55.45;98823.78;4409621;32;35889;-72
2021/03/14 03:35:17;;;;;;;3.45;2.22;;;;;;;10.63;55.22;98813.63;4421373;32;33132;-72
2021/03/14 03:37:45;;;;;;;2.12;1.92;;;;;;;10.75;54.92;98812.28;4432697;32;33764;-73
2021/03/14 03:40:14;;;;;;;5.25;3.58;;;;;;;10.59;55.11;98800.84;4406293;32;34822;-72
2021/03/14 03:42:48;;;;;;;4.50;2.20;;;;;;;11.09;53.82;98793.38;4424591;32;34358;-72
2021/03/14 03:45:16;;;;;;;2.25;2.05;;;;;;;10.68;55.12;98790.00;4407728;32;34141;-72
2021/03/14 03:47:44;;;;;;;3.15;2.22;;;;;;;10.60;55.28;98787.38;4434992;32;33571;-72
2021/03/14 03:50:12;;;;;;;;;;;;;;;10.75;54.95;98783.00;4439201;32;35654;-72
2021/03/14 03:52:45;;;;;;;3.40;2.67;;;;;;;10.78;54.87;98792.50;4436996;32;34467;-72
2021/03/14 03:55:13;;;;;;;4.12;2.05;;;;;;;10.84;54.63;98792.62;4433228;32;33375;-72
2021/03/14 03:57:41;;;;;;;2.62;2.25;;;;;;;10.83;54.58;98787.47;4433175;32;33634;-72
2021/03/14 04:00:13;;;;;;;5.75;3.70;;;;;;;10.72;55.19;98791.34;4419738;32;35275;-72
2021/03/14 04:02:42;;;;;;;8.88;1.90;;;;;;;10.87;54.69;98789.63;4434879;32;34344;-72
2021/03/14 04:05:10;;;;;;;2.70;1.83;;;;;;;10.90;54.56;98793.78;4427847;32;34521;-72
2021/03/14 04:07:40;;;;;;;5.93;4.28;;;;;;;10.75;54.83;98795.50;4438584;32;33219;-72
2021/03/14 04:10:10;;;;;;;2.95;2.22;;;;;;;10.81;54.92;98798.31;4408401;32;34828;-72
2021/03/14 04:12:39;;;;;;;5.15;3.40;;;;;;;10.92;54.44;98795.28;4422261;32;35164;-72
2021/03/14 04:15:08;;;;;;;18.12;3.55;;;;;;;11.20;53.73;98787.69;4424618;32;32983;-73
2021/03/14 04:17:37;;;;;;;4.68;3.50;;;;;;;10.94;54.59;98784.47;4421727;32;33255;-72
2021/03/14 04:20:09;;;;;;;2.20;1.98;;;;;;;10.89;54.69;98792.13;4431750;32;34822;-72
2021/03/14 04:22:38;;;;;;;4.43;2.42;;;;;;;10.87;54.73;98805.59;4426028;32;34922;-72
2021/03/14 04:25:06;;;;;;;1.95;1.58;;;;;;;10.76;54.94;98805.13;4431178;32;33143;-72
2021/03/14 04:27:33;;;;;;;;;;;;;;;10.54;55.64;98822.63;4408618;32;34156;-72
2021/03/14 04:30:03;;;;;;;1.90;1.80;;;;;;;10.54;55.67;98825.28;4424445;32;35412;-72
2021/03/14 04:32:30;;;;;;;6.25;3.65;;;;;;;10.45;55.64;98833.41;4410437;32;35897;-72
2021/03/14 04:34:58;;;;;;;2.62;1.98;;;;;;;10.57;55.18;98830.25;4403335;32;33161;-72
2021/03/14 04:37:25;;;;;;;3.17;2.47;;;;;;;10.76;54.45;98815.78;4407587;32;35023;-72
2021/03/14 04:39:54;;;;;;;2.90;1.70;;;;;;;10.69;54.06;98820.94;4416127;32;34568;-72
2021/03/14 04:42:22;;;;;;;2.83;2.20;;;;;;;10.68;54.08;98837.06;4411460;32;34982;-72
2021/03/14 04:44:50;;;;;;;3.20;1.77;;;;;;;10.74;54.07;98845.19;4413611;32;33041;-72
2021/03/14 04:47:17;;;;;;;;;;;;;;;10.44;54.95;98853.03;4410308;32;33193;-72
2021/03/14 04:49:46;;;;;;;2.92;2.42;;;;;;;10.48;53.85;98849.06;4418710;32;34487;-72
2021/03/14 04:52:18;;;;;;;1.52;1.42;;;;;;;10.58;53.45;98845.19;4407079;32;34934;-72
2021/03/14 04:54:49;;;;;;;2.58;1.83;;;;;;;10.50;53.87;98850.56;4404413;32;32701;-73
2021/03/14 04:57:18;;;;;;;2.00;1.30;;;;;;;10.63;53.12;98847.34;4405779;32;33414;-73
2021/03/14 04:59:45;;;;;;;1.87;1.75;;;;;;;10.20;54.02;98858.34;4408542;32;36450;-72
2021/03/14 05:02:14;;;;;;;2.75;1.65;;;;;;;10.38;53.75;98862.50;4423228;32;34646;-72
2021/03/14 05:04:43;;;;;;;3.08;2.78;;;;;;;10.01;54.64;98861.28;4395062;32;33178;-72
2021/03/14 05:07:13;;;;;;;2.35;1.70;;;;;;;10.36;53.77;98855.66;4404165;32;33227;-72
2021/03/14 05:09:41;;;;;;;3.90;3.60;;;;;;;10.80;52.71;98843.69;4394415;32;34938;-72
2021/03/14 05:12:08;;;;;;;;;;;;;;;10.45;53.99;98836.06;4421722;32;33737;-72
2021/03/14 05:14:37;;;;;;;1.77;1.30;;;;;;;10.81;52.98;98835.56;4419552;32;32821;-72
2021/03/14 05:17:05;;;;;;;3.40;2.87;;;;;;;10.91;52.63;98838.00;4408107;32;34506;-72
2021/03/14 05:19:33;;;;;;;2.15;1.48;;;;;;;10.94;52.71;98838.50;4408699;32;34422;-72
2021/03/14 05:22:01;;;;;;;3.10;2.90;;;;;;;11.21;52.79;98830.13;4406739;32;34154;-72
2021/03/14 05:24:28;;;;;;;2.20;1.90;;;;;;;11.07;52.98;98828.19;4419259;32;32888;-72
2021/03/14 05:26:57;;;;;;;2.35;2.15;;;;;;;11.11;53.29;98820.69;4405414;32;33670;-72
2021/03/14 05:29:25;;;;;;;3.05;2.10;;;;;;;11.03;53.54;98826.03;4406652;32;35611;-72
2021/03/14 05:31:56;;;;;;;3.15;2.17;;;;;;;11.04;53.39;98835.69;4416571;32;35690;-73
2021/03/14 05:34:25;;;;;;;3.42;1.48;;;;;;;11.02;53.45;98827.84;4434990;32;33462;-72
2021/03/14 05:36:52;;;;;;;3.35;2.03;;;;;;;11.08;53.45;98837.81;4423036;32;34665;-72
2021/03/14 05:39:19;;;;;;;;;;;;;;;10.92;53.92;98837.84;4423130;32;36018;-72
2021/03/14 05:41:47;;;;;;;3.05;1.90;;;;;;;11.03;53.48;98836.69;4421864;32;33998;-72
2021/03/14 05:44:14;;;;;;;1.90;1.80;;;;;;;11.04;53.20;98838.34;4425592;32;33137;-72
2021/03/14 05:46:41;;;;;;;2.25;2.05;;;;;;;10.98;53.68;98850.50;4440956;32;33770;-72
2021/03/14 05:49:10;;;;;;;2.22;1.50;;;;;;;10.88;54.22;98838.38;4421133;32;35393;-73
2021/03/14 05:51:43;;;;;;;0.75;0.75;;;;;;;11.04;53.63;98846.31;4426206;32;34054;-72
2021/03/14 05:54:16;;;;;;;8.18;2.22;;;;;;;11.12;53.37;98844.47;4407182;32;34220;-72
2021/03/14 05:56:46;;;;;;;2.30;1.33;;;;;;;10.93;54.39;98857.31;4420716;32;34500;-72
2021/03/14 05:59:16;;;;;;;2.00;1.58;;;;;;;10.99;54.03;98865.47;4433751;32;34808;-72
2021/03/14 06:01:48;;;;;;;3.40;2.62;;;;;;;11.01;54.32;98870.59;4436336;32;35547;-72
2021/03/14 06:04:17;;;;;;;2.78;2.08;;;;;;;11.13;53.99;98879.91;4424028;32;33350;-72
2021/03/14 06:06:46;;;;;;;2.22;2.03;;;;;;;11.02;54.86;98870.44;4432420;32;33716;-72
2021/03/14 06:09:15;;;;;;;8.27;1.05;;;;;;;11.12;54.25;98879.06;4418959;32;34293;-73
2021/03/14 06:11:43;;;;;;;3.90;2.72;;;;;;;11.41;53.24;98864.19;4421783;32;34360;-72
2021/03/14 06:14:29;;;;;;;4.62;2.30;;;;;;;11.43;53.99;98864.81;4421790;32;33341;-72
2021/03/14 06:17:12;;;;;;;8.02;2.30;;;;;;;11.24;54.74;98866.22;4431521;32;34413;-72
2021/03/14 06:19:40;;;;;;;2.10;1.90;;;;;;;11.21;54.92;98861.25;4423072;32;34767;-72
2021/03/14 06:22:19;;;;;;;2.70;2.30;;;;;;;11.27;55.09;98864.06;4427371;32;33826;-72
2021/03/14 06:24:49;;;;;;;3.78;3.45;;;;;;;11.11;55.39;98865.94;4425427;32;33204;-72
2021/03/14 06:27:52;;;;;;;1.60;1.50;;;;;;;11.56;53.17;98858.97;4422150;32;32903;-72
2021/03/14 06:30:26;;;;;;;2.47;2.22;;;;;;;11.59;52.07;98862.12;4437976;32;34848;-72
2021/03/14 06:33:08;;;;;;;4.00;2.83;;;;;;;11.50;52.34;98864.97;4438558;32;34432;-72
2021/03/14 06:35:40;;;;;;;2.60;2.28;;;;;;;11.56;52.21;98864.28;4423729;32;33447;-72
2021/03/14 06:38:18;;;;;;;5.95;3.28;;;;;;;11.43;53.31;98861.31;4433477;32;33878;-72
2021/03/14 06:40:45;;;;;;;4.20;1.62;;;;;;;11.81;51.72;98856.03;4423432;32;34829;-72
2021/03/14 06:43:14;;;;;;;4.12;1.42;;;;;;;11.66;52.02;98856.94;4421713;32;33960;-72
2021/03/14 06:45:42;;;;;;;2.28;2.12;;;;;;;11.70;51.80;98853.75;4433414;32;33846;-72
2021/03/14 06:48:11;;;;;;;6.57;3.05;;;;;;;11.74;51.75;98856.91;4419356;32;34775;-72
2021/03/14 06:50:41;;;;;;;2.62;2.12;;;;;;;11.65;52.62;98866.75;4421041;32;36140;-72
2021/03/14 06:53:12;;;;;;;3.37;2.42;;;;;;;11.43;52.99;98867.50;4420217;32;33574;-72
2021/03/14 06:55:42;;;;;;;4.75;2.55;;;;;;;11.56;52.60;98872.28;4434923;32;33647;-72
2021/03/14 06:58:26;;;;;;;;;;;;;;;11.60;52.12;98876.28;4436028;32;34797;-72
2021/03/14 07:01:13;;;;;;;2.28;2.10;;;;;;;11.84;51.24;98873.50;4440771;32;34734;-73
2021/03/14 07:03:52;;;;;;;4.75;2.33;;;;;;;11.92;50.97;98873.47;4408084;32;34984;-72
2021/03/14 07:07:10;;;;;;;3.30;1.90;;;;;;;11.95;50.71;98881.09;4437108;32;33490;-72
2021/03/14 07:20:33;;;;;;;;;;;;;;;;;;;;;
2021/03/14 07:24:16;;;;;;;0.73;0.65;;;;;;;11.33;51.68;98933.44;4432996;32;34787;-73
2021/03/14 07:51:17;;;;;;;0.68;0.55;;;;;;;9.95;63.26;98953.09;4357689;32;32172;-73
2021/03/14 08:08:37;;;;;;;0.13;0.10;;;;;;;9.55;63.03;98975.97;4406336;32;35268;-72
2021/03/14 08:11:47;;;;;;;5.55;3.85;;;;;;;9.47;65.39;98976.72;4413182;32;33868;-73
2021/03/14 08:25:19;;;;;;;0.40;0.40;;;;;;;9.50;64.44;98965.81;4421534;32;35754;-73
2021/03/14 08:30:02;;;;;;;0.75;0.30;;;;;;;9.89;62.41;98967.00;4409014;32;34007;-72
2021/03/14 08:54:54;;;;;;;;;;;;;;;;;;;;;
2021/03/14 08:58:40;;;;;;;0.20;0.20;;;;;;;10.03;64.04;98990.31;4325880;33;32774;-73
2021/03/14 09:08:44;;;;;;;0.00;0.00;;;;;;;10.18;61.41;99003.88;4299873;33;34216;-73
2021/03/14 09:28:41;;;;;;;0.00;0.00;;;;;;;11.41;60.81;98973.38;4224107;33;33796;-73
2021/03/14 09:41:45;;;;;;;0.03;0.03;;;;;;;11.84;59.36;98972.94;4237179;33;33069;-73
2021/03/14 09:58:00;;;;;;;4.78;0.30;;;;;;;12.50;57.09;98986.66;4326015;33;35385;-73
2021/03/14 10:04:20;;;;;;;0.25;0.25;;;;;;;12.26;56.64;98973.44;4354749;32;32296;-74
2021/03/14 10:31:25;;;;;;;5.50;1.52;;;;;;;12.29;58.14;98977.59;4422788;32;34596;-72
2021/03/14 10:45:06;;;;;;;3.22;1.95;;;;;;;12.11;60.24;98967.16;4344883;32;33197;-72
2021/03/14 10:55:53;;;;;;;0.00;0.00;;;;;;;11.58;61.80;98961.72;4343406;33;35263;-72
2021/03/14 11:12:06;;;;;;;0.08;0.08;;;;;;;11.82;59.57;98937.62;4315181;33;33184;-73
2021/03/14 11:18:54;;;;;;;;;;;;;;;;;;;;;
2021/03/14 11:22:16;;;;;;;0.30;0.30;;;;;;;12.23;60.39;98939.13;4326864;33;34225;-72
2021/03/14 11:51:28;;;;;;;0.30;0.30;;;;;;;11.07;64.25;98979.91;4344958;33;33159;-72
2021/03/14 12:07:35;;;;;;;4.50;0.43;;;;;;;11.18;62.56;98965.41;4345893;32;32504;-73
2021/03/14 12:12:38;;;;;;;6.80;1.98;;;;;;;11.14;63.37;98964.91;4368099;27;33722;-80
2021/03/14 12:15:07;;;;;;;2.53;1.20;;;;;;;11.03;64.04;98959.91;4387863;32;33206;-77
2021/03/14 12:17:35;;;;;;;0.75;0.50;;;;;;;11.04;63.79;98950.94;4383959;32;33817;-78
2021/03/14 12:20:04;;;;;;;0.10;0.10;;;;;;;11.49;62.98;98945.88;4368309;32;35405;-79
2021/03/14 12:22:32;;;;;;;0.40;0.40;;;;;;;11.77;62.58;98944.47;4382327;32;34981;-76
2021/03/14 12:24:59;;;;;;;1.12;0.17;;;;;;;12.07;59.03;98933.87;4395391;32;34234;-79
2021/03/14 12:27:28;;;;;;;1.05;0.85;;;;;;;11.61;60.30;98931.22;4387219;32;33674;-75
2021/03/14 12:29:56;;;;;;;0.35;0.35;;;;;;;11.88;57.51;98941.44;4410896;32;34313;-78
2021/03/14 12:32:24;;;;;;;0.47;0.47;;;;;;;11.87;55.69;98932.63;4447834;32;33636;-78
2021/03/14 12:34:51;;;;;;;0.10;0.08;;;;;;;11.92;57.38;98935.59;4446800;32;33499;-75
2021/03/14 12:37:21;;;;;;;0.28;0.28;;;;;;;12.06;51.23;98931.34;4448708;32;33239;-76
2021/03/14 12:40:11;;;;;;;0.37;0.35;;;;;;;12.20;49.78;98933.31;4430928;32;34539;-76
2021/03/14 12:42:38;;;;;;;0.13;0.08;;;;;;;12.33;49.73;98928.22;4444585;32;34398;-77
2021/03/14 12:45:07;;;;;;;0.65;0.17;;;;;;;12.69;49.77;98932.81;4442240;32;32836;-78
2021/03/14 12:47:35;;;;;;;0.15;0.13;;;;;;;12.64;48.59;98918.31;4442309;32;35362;-76
2021/03/14 12:50:07;;;;;;;0.13;0.13;;;;;;;12.51;50.86;98912.75;4442964;32;34375;-77
2021/03/14 12:52:35;;;;;;;0.65;0.40;;;;;;;12.52;47.31;98911.75;4445305;32;33596;-75
2021/03/14 12:55:06;;;;;;;0.57;0.57;;;;;;;12.76;49.30;98912.38;4431818;32;34449;-78
2021/03/14 12:57:41;;;;;;;1.12;0.55;;;;;;;13.14;48.45;98910.59;4445775;32;34629;-76
2021/03/14 13:00:13;;;;;;;0.20;0.20;;;;;;;13.27;45.60;98895.59;4445066;32;35176;-76
2021/03/14 13:02:47;;;;;;;0.20;0.20;;;;;;;13.43;46.24;98897.28;4451122;32;33739;-76
2021/03/14 13:05:22;;;;;;;0.10;0.10;;;;;;;12.89;45.18;98903.78;4449903;32;32760;-75
2021/03/14 13:07:54;;;;;;;0.57;0.57;;;;;;;13.47;46.41;98907.41;4447095;32;33590;-77
2021/03/14 13:10:23;;;;;;;0.10;0.10;;;;;;;13.63;46.37;98903.72;4431529;32;33705;-76
2021/03/14 13:12:57;;;;;;;0.05;0.05;;;;;;;13.38;45.76;98891.62;4446519;32;35397;-76
2021/03/14 13:15:27;;;;;;;0.10;0.10;;;;;;;13.82;44.53;98893.28;4457831;32;33284;-77
2021/03/14 13:20:32;;;;;;;0.30;0.28;;;;;;;12.91;44.22;98897.25;4419197;27;36593;-73
2021/03/14 13:23:25;;;;;;;0.10;0.10;;;;;;;12.79;44.17;98892.53;4433303;32;34390;-73
2021/03/14 13:25:55;;;;;;;0.05;0.05;;;;;;;13.16;45.02;98895.22;4429527;32;32731;-73
2021/03/14 13:28:26;;;;;;;0.10;0.10;;;;;;;12.73;46.56;98903.91;4436482;32;33692;-73
2021/03/14 13:30:59;;;;;;;0.22;0.22;;;;;;;13.09;45.38;98900.47;4435122;32;34946;-73
2021/03/14 13:33:29;;;;;;;0.75;0.37;;;;;;;12.56;46.90;98905.88;4435754;32;34092;-73
2021/03/14 13:35:57;;;;;;;0.30;0.30;;;;;;;12.91;45.57;98899.06;4437094;32;33265;-72
2021/03/14 13:38:29;;;;;;;0.52;0.40;;;;;;;12.77;44.73;98900.69;4437065;32;34607;-72
2021/03/14 13:40:56;;;;;;;0.40;0.30;;;;;;;13.24;44.50;98900.47;4432265;32;35563;-72
2021/03/14 13:43:24;;;;;;;0.20;0.20;;;;;;;13.31;44.81;98896.87;4433157;32;34127;-72
2021/03/14 13:45:53;;;;;;;0.20;0.10;;;;;;;13.62;43.69;98891.38;4406651;32;33323;-72
2021/03/14 13:48:26;;;;;;;0.15;0.15;;;;;;;13.39;44.37;98906.69;4428950;32;34555;-72
2021/03/14 13:50:54;;;;;;;1.35;0.65;;;;;;;13.15;45.18;98913.09;4424998;32;36169;-72
2021/03/14 13:53:24;;;;;;;0.20;0.20;;;;;;;12.89;45.42;98914.44;4436433;32;34553;-72
2021/03/14 13:55:57;;;;;;;0.03;0.00;;;;;;;13.08;44.85;98919.31;4434827;32;32627;-72
2021/03/14 13:58:26;;;;;;;0.20;0.20;;;;;;;12.72;46.12;98920.94;4410127;32;31920;-72
2021/03/14 14:01:01;;;;;;;0.00;0.00;;;;;;;13.03;45.88;98916.38;4433055;32;35002;-72
2021/03/14 14:03:34;;;;;;;1.42;0.88;;;;;;;12.36;45.59;98914.50;4426761;32;33938;-72
2021/03/14 14:06:06;;;;;;;0.45;0.20;;;;;;;12.77;46.77;98915.91;4419723;32;32893;-71
2021/03/14 14:08:33;;;;;;;0.13;0.13;;;;;;;12.16;47.49;98915.97;4422834;32;34473;-71
2021/03/14 14:11:02;;;;;;;0.20;0.10;;;;;;;12.35;45.65;98912.84;4430622;32;33732;-71
2021/03/14 14:13:32;;;;;;;0.00;0.00;;;;;;;12.47;45.60;98916.81;4438282;32;34477;-72
2021/03/14 14:16:03;;;;;;;0.47;0.25;;;;;;;12.02;48.14;98919.41;4433040;32;33222;-71
2021/03/14 14:18:35;;;;;;;0.40;0.20;;;;;;;12.26;44.51;98912.09;4436990;32;33776;-71
2021/03/14 14:21:03;;;;;;;0.10;0.10;;;;;;;12.45;45.25;98911.63;4439890;32;34783;-71
2021/03/14 14:23:33;;;;;;;0.13;0.13;;;;;;;12.64;44.73;98913.81;4423423;32;34223;-71
2021/03/14 14:26:00;;;;;;;0.20;0.20;;;;;;;12.62;42.56;98912.34;4423676;32;34834;-71
2021/03/14 14:28:45;;;;;;;0.20;0.05;;;;;;;12.38;44.43;98910.66;4420071;32;33571;-72
2021/03/14 14:31:16;;;;;;;0.20;0.10;;;;;;;12.41;43.37;98918.34;4435295;32;34884;-72
2021/03/14 14:33:46;;;;;;;0.10;0.10;;;;;;;12.07;43.39;98917.88;4408730;32;34653;-71
2021/03/14 14:36:21;;;;;;;0.37;0.20;;;;;;;12.52;43.06;98907.25;4427100;32;33440;-72
2021/03/14 14:38:51;;;;;;;0.00;0.00;;;;;;;12.63;42.68;98917.50;4431613;32;33631;-72
2021/03/14 14:41:23;;;;;;;0.30;0.30;;;;;;;12.39;42.75;98901.66;4429090;32;35483;-73
2021/03/14 14:43:53;;;;;;;0.08;0.08;;;;;;;12.20;43.49;98907.44;4438533;32;33954;-72
2021/03/14 14:46:27;;;;;;;1.00;0.17;;;;;;;12.39;43.35;98901.66;4436705;32;33289;-71
2021/03/14 14:48:57;;;;;;;0.15;0.15;;;;;;;12.32;42.87;98908.72;4435609;32;33797;-71
2021/03/14 14:51:28;;;;;;;0.00;0.00;;;;;;;12.39;42.08;98911.50;4426248;32;34421;-71
2021/03/14 14:54:04;;;;;;;0.20;0.20;;;;;;;12.10;42.59;98916.69;4432730;32;34913;-72
2021/03/14 14:56:34;;;;;;;0.00;0.00;;;;;;;12.24;42.84;98914.09;4435147;32;33418;-71
2021/03/14 14:59:09;;;;;;;0.00;0.00;;;;;;;11.94;43.68;98909.63;4420296;32;34020;-71
2021/03/14 15:01:42;;;;;;;0.30;0.30;;;;;;;12.53;42.96;98910.72;4433109;32;34828;-72
2021/03/14 15:04:16;;;;;;;0.52;0.52;;;;;;;12.47;42.73;98906.94;4432530;32;34932;-72
2021/03/14 15:06:46;;;;;;;0.95;0.70;;;;;;;12.69;42.43;98911.47;4436912;32;33148;-72
2021/03/14 15:09:17;;;;;;;0.10;0.10;;;;;;;12.26;42.95;98903.25;4426054;32;34037;-71
2021/03/14 15:11:47;;;;;;;0.03;0.03;;;;;;;11.93;44.05;98905.25;4436144;32;35121;-72
2021/03/14 15:14:17;;;;;;;1.35;0.20;;;;;;;12.18;43.74;98903.31;4434759;32;35016;-71
2021/03/14 15:16:47;;;;;;;0.28;0.28;;;;;;;12.21;43.88;98898.44;4435126;32;33145;-71
2021/03/14 15:19:20;;;;;;;0.08;0.08;;;;;;;12.20;44.89;98890.63;4431320;32;34559;-72
2021/03/14 15:21:47;;;;;;;0.73;0.25;;;;;;;11.86;45.17;98879.50;4428709;32;35107;-71
2021/03/14 15:24:20;;;;;;;0.17;0.15;;;;;;;11.85;45.75;98876.00;4433395;32;35443;-72
2021/03/14 15:26:47;;;;;;;0.00;0.00;;;;;;;11.93;45.56;98869.81;4436120;32;34020;-72
2021/03/14 15:29:29;;;;;;;0.20;0.10;;;;;;;11.73;45.87;98864.06;4438801;32;33816;-72
2021/03/14 15:31:59;;;;;;;0.10;0.10;;;;;;;11.82;45.62;98852.34;4420621;32;34036;-72
2021/03/14 15:34:27;;;;;;;0.40;0.40;;;;;;;12.09;45.65;98856.38;4422548;32;33762;-71
2021/03/14 15:36:58;;;;;;;0.10;0.10;;;;;;;11.44;46.90;98863.81;4436314;32;33177;-71
2021/03/14 15:39:28;;;;;;;0.28;0.28;;;;;;;11.73;46.24;98861.41;4416762;32;33586;-72
2021/03/14 15:41:58;;;;;;;0.43;0.43;;;;;;;11.56;46.82;98867.75;4423370;32;34759;-72
2021/03/14 15:44:28;;;;;;;0.10;0.10;;;;;;;11.50;45.96;98872.94;4428688;32;34056;-72
2021/03/14 15:46:59;;;;;;;0.35;0.35;;;;;;;11.52;45.72;98877.12;4429827;32;34827;-72
2021/03/14 15:49:34;;;;;;;0.13;0.13;;;;;;;11.60;45.42;98874.44;4421795;32;32693;-72
2021/03/14 15:52:02;;;;;;;0.10;0.00;;;;;;;11.22;47.13;98882.38;4434563;32;35246;-72
2021/03/14 15:54:33;;;;;;;0.10;0.10;;;;;;;11.08;46.10;98880.41;4424695;32;35285;-72
2021/03/14 15:57:06;;;;;;;1.58;0.90;;;;;;;11.17;45.58;98879.41;4430580;32;33057;-72
2021/03/14 15:59:57;;;;;;;0.10;0.10;;;;;;;10.94;46.26;98877.62;4422729;32;33651;-71
2021/03/14 16:02:27;;;;;;;0.37;0.37;;;;;;;11.30;45.29;98869.03;4406944;32;35064;-72
2021/03/14 16:04:55;;;;;;;0.10;0.10;;;;;;;10.99;45.00;98867.28;4433675;32;35188;-71